x

Passage Island, Mi (pilm4) Weather Station

4:00am - Tue 31st Mar 2015 All times are CDT. -5 hours from GMT.

  • Wind
    10mph, 11mph gusts
  • Air Temp 29°f
  • Sea Pressure 1013.2mb
  • Passage Island, Mi
  • Passage Island, Mi

More Historic Weather Station data

Upgrade to MSW Pro to gain access to the past 30 days of data for over 8000 Wavebouys and Weather Stations around the globe.

Join Pro

Comparision Forecast

View Surf forecast
   
Tue 03/31 4:00am 10 11 mph 1013.2mb 29f
3:00am 8 9 mph 1013.6mb 29f
2:00am 7
mph
1013.8mb 29f
1:00am 5
mph
1014.2mb 30f
12:00am 7
mph
1014.5mb 30f
Mon 03/30 11:00pm 9
mph
1014.9mb 29f
10:00pm 10 11 mph 1015.4mb 30f
9:00pm 10 11 mph 1015.4mb 30f
8:00pm 13
mph
1014.9mb 29f
7:00pm 10 11 mph 1014.8mb 29f
6:00pm 11
mph
1015mb 30f
5:00pm 10 11 mph 1014.7mb 29f
4:00pm 11
mph
1014.8mb 29f
3:00pm 9 10 mph 1015.1mb 30f
2:00pm 8 9 mph 1015.2mb 30f
1:00pm 6
mph
1015.6mb 30f
12:00pm 2 3 mph 1015.5mb 31f
11:00am 5 8 mph 1015.1mb 30f
10:00am 11 14 mph 1014.6mb 30f
9:00am 18 21 mph 1014mb 29f
8:00am 16 17 mph 1012.9mb 30f
7:00am 17 21 mph 1011.9mb 29f
6:00am 17 18 mph 1010.8mb 29f
5:00am 11 13 mph 1009.8mb 31f
4:00am 22 24 mph 1008.2mb 32f
3:00am 18 20 mph 1007.9mb 33f
2:00am 24 26 mph 1007.2mb 34f
1:00am 26 28 mph 1006.2mb 34f
12:00am 18 21 mph 1005.7mb 34f
Sun 03/29 11:00pm 21 22 mph 1005.6mb 35f
10:00pm 22 24 mph 1005.1mb 35f
9:00pm 29 31 mph 1004.4mb 36f
8:00pm 20 21 mph 1003.5mb 35f
7:00pm 18 21 mph 1001.9mb 35f
6:00pm 21 23 mph 999.8mb 35f
5:00pm 22 24 mph 998.3mb 34f
4:00pm 26 29 mph 996.9mb 32f
3:00pm 28 31 mph 996.8mb 32f
2:00pm 18 20 mph 997.4mb 32f
1:00pm 24 26 mph 998.4mb 32f
12:00pm 24 28 mph 999.5mb 32f
11:00am 22 24 mph 1000.5mb 31f
10:00am 25 30 mph 1001.4mb 31f
9:00am 20 21 mph 1002.8mb 33f
8:00am 23 25 mph 1003.9mb 33f
7:00am 30 34 mph 1004.6mb 33f
6:00am 25 30 mph 1006.5mb 32f
5:00am 28 31 mph 1008.2mb 33f
4:00am 24 28 mph 1010.2mb 32f
3:00am 23 26 mph 1011.4mb 32f
2:00am 22 24 mph 1012.4mb 32f
1:00am 26 29 mph 1013.3mb 32f
12:00am 22 24 mph 1014.4mb 31f
Sat 03/28 11:00pm 24 26 mph 1015.9mb 29f
10:00pm 24 25 mph 1017.5mb 29f
9:00pm 23 25 mph 1018.3mb 28f
8:00pm 23 24 mph 1018.8mb 29f
7:00pm 16 17 mph 1019.8mb 30f
6:00pm 16 17 mph 1020.6mb 30f
5:00pm 20 23 mph 1021.3mb 30f
4:00pm 25 26 mph 1022.2mb 29f
3:00pm 24 26 mph 1023mb 29f
2:00pm 22 25 mph 1024mb 29f
1:00pm 21 22 mph 1024.9mb 28f
12:00pm 17 18 mph 1025.5mb 28f
11:00am 11 13 mph 1026.1mb 26f
10:00am 10 11 mph 1026.5mb 25f
9:00am 10 11 mph 1026.8mb 24f
8:00am 13 15 mph 1026.7mb 23f
7:00am 15 16 mph 1026.5mb 22f
6:00am 15 16 mph 1025.9mb 22f
5:00am 15 16 mph 1025.8mb 22f
4:00am 15 16 mph 1025.7mb 22f
3:00am 14 16 mph 1025.6mb 22f
2:00am 13 15 mph 1025.7mb 22f
1:00am 14 15 mph 1025.8mb 21f
12:00am 14 16 mph 1026mb 20f
Fri 03/27 11:00pm 14 16 mph 1026mb 20f
10:00pm 15 16 mph 1026.1mb 19f
9:00pm 14 17 mph 1026.1mb 19f
8:00pm 15 16 mph 1025.7mb 20f
7:00pm 16 20 mph 1025.7mb 20f
6:00pm 14 17 mph 1025.6mb 20f
5:00pm 13 16 mph 1026mb 19f
4:00pm 14 16 mph 1026.3mb 18f
3:00pm 6 9 mph 1026.8mb 16f
2:00pm 5 6 mph 1027.6mb 16f
1:00pm 3
mph
1028.2mb 14f
12:00pm 2 3 mph 1028.4mb 14f
11:00am 5 6 mph 1028.8mb 14f